createdAt,value
2019-02-14T00:02:05.986Z,2.20
2019-02-14T00:04:34.520Z,3.07
2019-02-14T00:07:02.993Z,3.07
2019-02-14T00:09:31.620Z,3.90
2019-02-14T00:12:00.129Z,3.37
2019-02-14T00:14:28.743Z,3.60
2019-02-14T00:16:57.367Z,2.47
2019-02-14T00:19:25.884Z,3.57
2019-02-14T00:21:54.489Z,3.37
2019-02-14T00:24:23.186Z,1.73
2019-02-14T00:26:52.094Z,2.20
2019-02-14T00:29:20.646Z,3.63
2019-02-14T00:31:49.201Z,1.87
2019-02-14T00:34:17.851Z,3.00
2019-02-14T00:36:46.472Z,2.67
2019-02-14T00:39:15.030Z,2.50
2019-02-14T00:41:43.573Z,2.10
2019-02-14T00:44:12.201Z,3.03
2019-02-14T00:46:40.831Z,4.20
2019-02-14T00:49:09.354Z,4.00
2019-02-14T00:51:38.018Z,3.30
2019-02-14T00:54:06.500Z,3.50
2019-02-14T00:56:35.032Z,3.10
2019-02-14T00:59:03.650Z,5.33
2019-02-14T01:01:32.264Z,6.30
2019-02-14T01:04:00.878Z,5.17
2019-02-14T01:06:29.430Z,4.67
2019-02-14T01:08:58.042Z,7.17
2019-02-14T01:11:26.705Z,4.90
2019-02-14T01:13:55.190Z,5.53
2019-02-14T01:16:23.674Z,4.60
2019-02-14T01:18:52.331Z,6.20
2019-02-14T01:21:21.001Z,8.63
2019-02-14T01:23:49.491Z,7.30
2019-02-14T01:26:18.023Z,9.23
2019-02-14T01:31:29.474Z,5.50
2019-02-14T01:33:58.113Z,4.73
2019-02-14T01:36:26.730Z,4.60
2019-02-14T01:38:55.342Z,2.93
2019-02-14T01:41:23.821Z,3.03
2019-02-14T01:43:52.459Z,3.93
2019-02-14T01:46:21.137Z,3.87
2019-02-14T01:48:49.616Z,6.07
2019-02-14T01:51:18.219Z,7.87
2019-02-14T01:53:46.872Z,4.80
2019-02-14T01:56:45.661Z,4.80
2019-02-14T01:59:14.276Z,8.13
2019-02-14T02:01:42.827Z,7.43
2019-02-14T02:04:11.455Z,8.80
2019-02-14T02:06:40.214Z,8.00
2019-02-14T02:09:08.872Z,6.53
2019-02-14T02:11:37.511Z,12.60
2019-02-14T02:14:06.380Z,9.97
2019-02-14T02:16:35.002Z,11.33
2019-02-14T02:19:03.699Z,8.63
2019-02-14T02:21:32.366Z,9.77
2019-02-14T02:24:00.870Z,12.57
2019-02-14T02:26:29.423Z,12.40
2019-02-14T02:28:58.267Z,12.97
2019-02-14T02:31:26.888Z,6.93
2019-02-14T02:33:55.441Z,10.50
2019-02-14T02:36:23.967Z,12.63
2019-02-14T02:38:52.595Z,12.87
2019-02-14T02:41:21.241Z,12.43
2019-02-14T02:43:49.745Z,9.80
2019-02-14T02:46:18.246Z,10.27
2019-02-14T02:48:46.880Z,13.23
2019-02-14T02:51:15.483Z,13.00
2019-02-14T02:53:44.105Z,13.27
2019-02-14T02:56:12.949Z,13.33
2019-02-14T02:58:41.652Z,10.87
2019-02-14T03:01:10.210Z,11.67
2019-02-14T03:03:38.843Z,12.73
2019-02-14T03:06:10.702Z,15.20
2019-02-14T03:08:37.754Z,14.73
2019-02-14T03:11:06.315Z,11.20
2019-02-14T03:13:34.992Z,13.73
2019-02-14T03:16:03.688Z,13.13
2019-02-14T03:18:32.192Z,12.70
2019-02-14T03:21:00.701Z,13.37
2019-02-14T03:23:29.325Z,14.10
2019-02-14T03:25:57.950Z,13.00
2019-02-14T03:28:26.552Z,15.97
2019-02-14T03:30:55.186Z,12.03
2019-02-14T03:33:23.679Z,15.13
2019-02-14T03:35:52.218Z,15.50
2019-02-14T03:38:20.848Z,19.00
2019-02-14T03:40:49.478Z,15.27
2019-02-14T03:43:18.012Z,13.67
2019-02-14T03:45:46.506Z,15.47
2019-02-14T03:48:15.138Z,14.43
2019-02-14T03:50:43.792Z,17.53
2019-02-14T03:53:12.362Z,15.10
2019-02-14T03:55:40.846Z,15.33
2019-02-14T03:58:09.517Z,14.20
2019-02-14T04:00:38.129Z,15.10
2019-02-14T04:03:06.678Z,16.07
2019-02-14T04:05:35.220Z,18.60
2019-02-14T04:08:03.835Z,18.73
2019-02-14T04:10:32.460Z,18.23
2019-02-14T04:13:00.980Z,16.97
2019-02-14T04:15:29.481Z,14.30
2019-02-14T04:17:58.113Z,15.50
2019-02-14T04:20:26.801Z,15.23
2019-02-14T04:22:55.290Z,15.67
2019-02-14T04:25:23.771Z,16.07
2019-02-14T04:27:52.478Z,17.63
2019-02-14T04:30:21.096Z,15.97
2019-02-14T04:32:49.585Z,17.07
2019-02-14T04:35:18.232Z,21.37
2019-02-14T04:37:46.969Z,17.03
2019-02-14T04:40:15.610Z,19.00
2019-02-14T04:42:44.154Z,17.47
2019-02-14T04:45:13.530Z,16.83
2019-02-14T04:47:42.563Z,16.20
2019-02-14T04:50:11.898Z,19.50
2019-02-14T04:52:40.539Z,20.30
2019-02-14T04:55:10.763Z,17.60
2019-02-14T04:57:39.393Z,17.67
2019-02-14T05:00:15.921Z,18.70
2019-02-14T05:02:44.637Z,23.53
2019-02-14T05:05:13.374Z,25.27
2019-02-14T05:07:42.100Z,19.53
2019-02-14T05:10:11.841Z,30.00
2019-02-14T05:12:40.487Z,26.83
2019-02-14T05:15:10.699Z,24.67
2019-02-14T05:17:39.330Z,25.63
2019-02-14T05:20:12.663Z,28.30
2019-02-14T05:22:41.499Z,28.30
2019-02-14T05:25:10.434Z,24.90
2019-02-14T05:27:44.920Z,25.43
2019-02-14T05:30:18.505Z,25.23
2019-02-14T05:32:47.003Z,23.00
2019-02-14T05:35:15.560Z,23.87
2019-02-14T05:37:44.226Z,26.03
2019-02-14T05:40:12.956Z,19.70
2019-02-14T05:42:41.439Z,26.13
2019-02-14T05:45:12.224Z,23.40
2019-02-14T05:47:40.846Z,32.97
2019-02-14T05:50:14.464Z,27.03
2019-02-14T05:52:43.078Z,32.23
2019-02-14T05:55:12.614Z,34.27
2019-02-14T05:57:41.279Z,30.73
2019-02-14T06:00:15.227Z,27.43
2019-02-14T06:02:43.721Z,26.07
2019-02-14T06:05:12.365Z,31.77
2019-02-14T06:07:41.036Z,28.63
2019-02-14T06:10:11.064Z,25.30
2019-02-14T06:12:39.696Z,23.37
2019-02-14T06:15:10.467Z,33.77
2019-02-14T06:17:39.091Z,23.83
2019-02-14T06:20:12.136Z,25.67
2019-02-14T06:22:40.798Z,23.30
2019-02-14T06:25:10.940Z,34.57
2019-02-14T06:27:39.482Z,29.43
2019-02-14T06:30:13.938Z,25.70
2019-02-14T06:32:42.568Z,26.13
2019-02-14T06:35:11.992Z,24.92
2019-02-14T06:37:40.591Z,28.50
2019-02-14T06:40:13.732Z,26.82
2019-02-14T06:42:42.477Z,30.50
2019-02-14T06:45:16.488Z,32.13
2019-02-14T06:47:45.122Z,30.25
2019-02-14T06:50:13.749Z,18.23
2019-02-14T06:52:42.279Z,27.75
2019-02-14T06:55:11.010Z,17.07
2019-02-14T06:57:39.634Z,28.25
2019-02-14T07:00:11.210Z,25.80
2019-02-14T07:02:39.762Z,27.70
2019-02-14T07:05:09.789Z,22.95
2019-02-14T07:07:38.473Z,19.48
2019-02-14T07:10:09.200Z,20.90
2019-02-14T07:12:37.701Z,34.30
2019-02-14T07:15:12.334Z,23.50
2019-02-14T07:17:41.085Z,23.55
2019-02-14T07:20:12.351Z,18.77
2019-02-14T07:22:40.888Z,18.92
2019-02-14T07:25:11.389Z,20.70
2019-02-14T07:27:40.026Z,37.08
2019-02-14T07:30:22.363Z,25.70
2019-02-14T07:32:50.981Z,15.53
2019-02-14T07:35:19.709Z,22.48
2019-02-14T07:37:48.386Z,14.38
2019-02-14T07:40:16.997Z,27.00
2019-02-14T07:42:45.674Z,23.40
2019-02-14T07:45:18.339Z,18.77
2019-02-14T07:47:46.886Z,26.45
2019-02-14T07:50:18.163Z,18.65
2019-02-14T07:52:46.848Z,24.45
2019-02-14T07:55:15.613Z,15.08
2019-02-14T07:57:44.371Z,24.63
2019-02-14T08:00:15.950Z,22.22
2019-02-14T08:02:44.587Z,76.70
2019-02-14T08:05:13.222Z,33.30
2019-02-14T08:07:41.813Z,52.10
2019-02-14T08:10:15.525Z,27.70
2019-02-14T08:12:44.077Z,36.17
2019-02-14T08:15:14.044Z,16.90
2019-02-14T08:17:42.679Z,17.37
2019-02-14T08:20:13.415Z,22.25
2019-02-14T08:22:42.249Z,16.90
2019-02-14T08:25:12.681Z,10.50
2019-02-14T08:27:41.312Z,11.80
2019-02-14T08:30:17.052Z,10.53
2019-02-14T08:32:45.539Z,10.05
2019-02-14T08:35:14.105Z,14.13
2019-02-14T08:37:45.433Z,10.25
2019-02-14T08:40:21.981Z,10.05
2019-02-14T08:42:50.689Z,13.23
2019-02-14T08:45:19.173Z,10.60
2019-02-14T08:47:47.802Z,8.78
2019-02-14T08:50:16.340Z,11.77
2019-02-14T08:52:44.955Z,8.47
2019-02-14T08:55:13.583Z,8.00
2019-02-14T08:57:42.188Z,10.53
2019-02-14T09:00:15.288Z,10.67
2019-02-14T09:02:43.902Z,15.48
2019-02-14T09:05:12.738Z,26.70
2019-02-14T09:07:41.414Z,14.93
2019-02-14T09:10:14.873Z,9.77
2019-02-14T09:12:43.543Z,12.63
2019-02-14T09:15:13.469Z,11.10
2019-02-14T09:17:42.114Z,15.27
2019-02-14T09:20:18.376Z,16.30
2019-02-14T09:22:47.010Z,14.93
2019-02-14T09:25:15.627Z,12.43
2019-02-14T09:27:44.165Z,12.37
2019-02-14T09:30:14.091Z,14.20
2019-02-14T09:32:42.761Z,9.40
2019-02-14T09:35:11.427Z,15.07
2019-02-14T09:37:39.916Z,17.07
2019-02-14T09:40:16.928Z,11.30
2019-02-14T09:42:45.565Z,17.57
2019-02-14T09:45:14.786Z,14.55
2019-02-14T09:47:43.327Z,14.57
2019-02-14T09:50:13.459Z,10.05
2019-02-14T09:52:42.385Z,11.63
2019-02-14T09:55:14.497Z,13.87
2019-02-14T09:57:43.030Z,12.60
2019-02-14T10:00:16.309Z,5.50
2019-02-14T10:02:45.009Z,12.53
2019-02-14T10:05:14.596Z,6.73
2019-02-14T10:07:43.149Z,7.30
2019-02-14T10:10:17.372Z,14.78
2019-02-14T10:12:53.702Z,7.08
2019-02-14T10:15:22.289Z,8.48
2019-02-14T10:17:50.903Z,12.25
2019-02-14T10:20:19.615Z,2.87
2019-02-14T10:22:48.104Z,8.35
2019-02-14T10:25:16.957Z,7.47
2019-02-14T10:27:45.574Z,8.15
2019-02-14T10:30:18.733Z,6.75
2019-02-14T10:32:47.325Z,5.87
2019-02-14T10:35:15.820Z,14.65
2019-02-14T10:37:44.529Z,8.00
2019-02-14T10:40:15.000Z,13.53
2019-02-14T10:42:43.547Z,4.05
2019-02-14T10:45:14.266Z,11.25
2019-02-14T10:47:42.922Z,7.50
2019-02-14T10:50:11.847Z,10.28
2019-02-14T10:52:40.480Z,13.33
2019-02-14T10:55:11.214Z,6.75
2019-02-14T10:57:39.768Z,6.00
2019-02-14T11:00:17.890Z,5.65
2019-02-14T11:02:47.093Z,7.22
2019-02-14T11:05:16.614Z,5.30
2019-02-14T11:07:45.309Z,5.58
2019-02-14T11:10:15.153Z,6.55
2019-02-14T11:12:43.769Z,12.82
2019-02-14T11:15:17.707Z,8.73
2019-02-14T11:17:46.262Z,10.13
2019-02-14T11:20:15.277Z,10.15
2019-02-14T11:22:44.184Z,11.00
2019-02-14T11:25:33.879Z,6.97
2019-02-14T11:28:02.484Z,12.70
2019-02-14T11:30:31.186Z,11.03
2019-02-14T11:32:59.739Z,7.20
2019-02-14T11:35:28.341Z,8.65
2019-02-14T11:37:57.013Z,5.05
2019-02-14T11:40:25.658Z,8.28
2019-02-14T11:42:54.161Z,3.95
2019-02-14T11:45:24.190Z,7.00
2019-02-14T11:47:52.829Z,9.05
2019-02-14T11:50:21.522Z,5.95
2019-02-14T11:52:50.010Z,11.18
2019-02-14T11:55:18.499Z,7.28
2019-02-14T11:57:47.127Z,11.38
2019-02-14T12:00:24.663Z,7.15
2019-02-14T12:02:55.876Z,11.00
2019-02-14T12:05:29.455Z,14.00
2019-02-14T12:07:58.107Z,9.28
2019-02-14T12:10:26.594Z,8.13
2019-02-14T12:12:55.212Z,16.07
2019-02-14T12:15:23.862Z,9.48
2019-02-14T12:17:52.360Z,14.70
2019-02-14T12:20:20.834Z,12.73
2019-02-14T12:22:49.527Z,9.53
2019-02-14T12:25:23.796Z,14.45
2019-02-14T12:27:52.352Z,17.17
2019-02-14T12:30:21.016Z,14.63
2019-02-14T12:32:49.633Z,9.33
2019-02-14T12:35:18.252Z,14.43
2019-02-14T12:37:46.788Z,7.90
2019-02-14T12:40:15.481Z,10.13
2019-02-14T12:42:44.099Z,13.40
2019-02-14T12:47:45.837Z,15.90
2019-02-14T12:50:14.447Z,9.65
2019-02-14T12:52:43.072Z,10.32
2019-02-14T12:55:11.710Z,11.33
2019-02-14T12:57:40.339Z,23.00
2019-02-14T13:00:17.711Z,8.55
2019-02-14T13:02:46.266Z,10.20
2019-02-14T13:05:14.811Z,20.05
2019-02-14T13:07:43.744Z,10.53
2019-02-14T13:10:14.581Z,6.15
2019-02-14T13:12:43.133Z,9.73
2019-02-14T13:15:17.541Z,10.98
2019-02-14T13:17:46.163Z,15.00
2019-02-14T13:20:14.793Z,11.03
2019-02-14T13:22:43.328Z,11.05
2019-02-14T13:25:12.739Z,16.45
2019-02-14T13:27:41.355Z,10.37
2019-02-14T13:30:15.763Z,13.23
2019-02-14T13:32:44.371Z,13.98
2019-02-14T13:35:13.304Z,24.12
2019-02-14T13:37:42.083Z,14.23
2019-02-14T13:40:10.712Z,12.88
2019-02-14T13:42:39.332Z,21.12
2019-02-14T13:45:14.333Z,18.50
2019-02-14T13:47:42.859Z,10.95
2019-02-14T13:50:12.791Z,15.35
2019-02-14T13:52:41.447Z,14.78
2019-02-14T13:55:11.175Z,16.40
2019-02-14T13:57:40.108Z,17.32
2019-02-14T14:00:14.799Z,28.23
2019-02-14T14:02:43.421Z,20.63
2019-02-14T14:05:12.043Z,14.95
2019-02-14T14:07:40.827Z,14.45
2019-02-14T14:10:10.200Z,15.98
2019-02-14T14:12:38.754Z,16.40
2019-02-14T14:15:09.416Z,16.90
2019-02-14T14:17:38.034Z,18.80
2019-02-14T14:20:08.491Z,18.70
2019-02-14T14:22:36.987Z,17.60
2019-02-14T14:25:07.425Z,19.53
2019-02-14T14:27:36.069Z,17.70
2019-02-14T14:30:07.741Z,17.33
2019-02-14T14:32:36.224Z,19.20
2019-02-14T14:35:06.354Z,19.00
2019-02-14T14:37:35.021Z,25.77
2019-02-14T14:40:04.759Z,22.23
2019-02-14T14:42:34.948Z,22.87
2019-02-14T14:45:05.526Z,30.90
2019-02-14T14:47:34.146Z,24.07
2019-02-14T14:50:02.781Z,23.60
2019-02-14T14:52:31.571Z,24.40
2019-02-14T14:55:00.037Z,26.37
2019-02-14T14:57:28.776Z,22.13
2019-02-14T14:59:57.450Z,29.93
2019-02-14T15:02:26.000Z,22.77
2019-02-14T15:04:54.484Z,24.93
2019-02-14T15:07:23.167Z,35.03
2019-02-14T15:09:57.493Z,23.73
2019-02-14T15:12:22.016Z,30.00
2019-02-14T15:14:50.625Z,28.93
2019-02-14T15:17:19.287Z,23.33
2019-02-14T15:19:47.918Z,22.50
2019-02-14T15:22:16.443Z,23.97
2019-02-14T15:24:45.041Z,26.90
2019-02-14T15:27:13.674Z,29.27
2019-02-14T15:29:42.180Z,26.43
2019-02-14T15:32:10.840Z,25.30
2019-02-14T15:34:39.460Z,26.30
2019-02-14T15:37:07.960Z,21.83
2019-02-14T15:39:36.493Z,24.30
2019-02-14T15:42:05.129Z,24.63
2019-02-14T15:44:33.774Z,21.87
2019-02-14T15:47:02.320Z,22.67
2019-02-14T15:49:30.870Z,26.30
2019-02-14T15:51:59.495Z,27.05
2019-02-14T15:54:28.172Z,23.30
2019-02-14T15:56:59.393Z,20.80
2019-02-14T15:59:28.898Z,21.23
2019-02-14T16:01:57.645Z,23.13
2019-02-14T16:04:27.099Z,20.20
2019-02-14T16:06:56.486Z,23.57
2019-02-14T16:09:25.132Z,22.63
2019-02-14T16:11:55.360Z,24.53
2019-02-14T16:14:23.959Z,23.57
2019-02-14T16:16:52.588Z,26.00
2019-02-14T16:19:21.211Z,31.03
2019-02-14T16:21:51.523Z,29.73
2019-02-14T16:24:20.180Z,33.00
2019-02-14T16:26:48.797Z,33.93
2019-02-14T16:29:17.460Z,33.33
2019-02-14T16:31:46.120Z,34.57
2019-02-14T16:34:14.641Z,38.60
2019-02-14T16:36:43.346Z,33.80
2019-02-14T16:39:12.050Z,37.70
2019-02-14T16:41:40.544Z,32.30
2019-02-14T16:44:09.062Z,39.60
2019-02-14T16:46:37.686Z,32.70
2019-02-14T16:49:06.178Z,29.73
2019-02-14T16:51:34.880Z,30.80
2019-02-14T16:54:03.500Z,38.57
2019-02-14T16:56:31.990Z,37.37
2019-02-14T16:59:00.532Z,31.03
2019-02-14T17:01:29.186Z,33.33
2019-02-14T17:03:57.821Z,40.85
2019-02-14T17:06:26.416Z,32.47
2019-02-14T17:08:54.985Z,27.33
2019-02-14T17:11:23.612Z,28.30
2019-02-14T17:13:52.443Z,27.53
2019-02-14T17:16:20.989Z,34.17
2019-02-14T17:18:49.496Z,27.20
2019-02-14T17:21:18.137Z,25.93
2019-02-14T17:23:46.754Z,24.23
2019-02-14T17:26:15.241Z,24.07
2019-02-14T17:28:43.917Z,21.23
2019-02-14T17:31:12.422Z,21.03
2019-02-14T17:33:40.911Z,30.93
2019-02-14T17:36:09.595Z,37.03
2019-02-14T17:38:38.206Z,24.87
2019-02-14T17:41:06.789Z,65.83
2019-02-14T17:43:35.547Z,32.10
2019-02-14T17:46:04.179Z,36.27
2019-02-14T17:48:32.809Z,37.10
2019-02-14T17:51:01.338Z,30.87
2019-02-14T17:53:29.834Z,34.50
2019-02-14T17:55:58.460Z,45.70
2019-02-14T17:58:27.129Z,43.50
2019-02-14T18:00:55.696Z,48.90
2019-02-14T18:03:24.209Z,45.92
2019-02-14T18:05:52.867Z,39.23
2019-02-14T18:08:21.348Z,48.90
2019-02-14T18:10:54.874Z,47.73
2019-02-14T18:13:20.373Z,50.30
2019-02-14T18:15:48.867Z,48.47
2019-02-14T18:18:17.367Z,50.67
2019-02-14T18:20:46.030Z,45.40
2019-02-14T18:23:14.661Z,52.10
2019-02-14T18:25:43.173Z,44.23
2019-02-14T18:28:11.848Z,40.63
2019-02-14T18:30:40.490Z,43.20
2019-02-14T18:33:09.113Z,43.70
2019-02-14T18:35:37.645Z,44.30
2019-02-14T18:38:06.198Z,43.57
2019-02-14T18:40:34.822Z,42.70
2019-02-14T18:43:03.485Z,43.70
2019-02-14T18:45:32.207Z,47.97
2019-02-14T18:48:00.834Z,41.87
2019-02-14T18:50:29.504Z,43.23
2019-02-14T18:52:58.075Z,48.83
2019-02-14T18:55:26.701Z,41.13
2019-02-14T18:57:55.591Z,40.57
2019-02-14T19:00:24.075Z,53.33
2019-02-14T19:02:52.630Z,37.03
2019-02-14T19:05:21.294Z,49.40
2019-02-14T19:07:49.919Z,37.03
2019-02-14T19:10:18.500Z,46.43
2019-02-14T19:12:47.083Z,33.23
2019-02-14T19:15:15.700Z,33.63
2019-02-14T19:17:44.320Z,34.63
2019-02-14T19:20:13.954Z,35.87
2019-02-14T19:22:42.764Z,39.20
2019-02-14T19:25:11.617Z,31.03
2019-02-14T19:27:40.217Z,37.27
2019-02-14T19:30:10.941Z,38.17
2019-02-14T19:32:39.651Z,41.07
2019-02-14T19:35:09.434Z,40.37
2019-02-14T19:37:37.986Z,52.63
2019-02-14T19:40:08.331Z,39.90
2019-02-14T19:42:36.962Z,48.90
2019-02-14T19:45:10.146Z,41.03
2019-02-14T19:47:38.649Z,37.03
2019-02-14T19:50:09.839Z,36.13
2019-02-14T19:52:38.467Z,44.47
2019-02-14T19:55:11.142Z,42.97
2019-02-14T19:57:42.578Z,40.47
2019-02-14T20:00:17.561Z,42.87
2019-02-14T20:02:46.193Z,39.03
2019-02-14T20:05:14.751Z,45.30
2019-02-14T20:07:43.354Z,36.53
2019-02-14T20:10:15.910Z,37.50
2019-02-14T20:12:44.534Z,47.97
2019-02-14T20:15:18.776Z,49.43
2019-02-14T20:17:47.347Z,43.53
2019-02-14T20:20:15.958Z,44.80
2019-02-14T20:22:44.900Z,38.37
2019-02-14T20:25:27.978Z,37.07
2019-02-14T20:27:56.756Z,34.47
2019-02-14T20:30:25.386Z,36.93
2019-02-14T20:33:03.930Z,78.30
2019-02-14T20:35:24.410Z,43.30
2019-02-14T20:37:52.964Z,38.43
2019-02-14T20:40:21.608Z,35.07
2019-02-14T20:42:50.284Z,43.00
2019-02-14T20:45:18.841Z,34.83
2019-02-14T20:47:48.486Z,37.80
2019-02-14T20:50:16.983Z,42.10
2019-02-14T20:52:45.567Z,38.27
2019-02-14T20:55:20.241Z,40.20
2019-02-14T20:57:48.892Z,44.07
2019-02-14T21:00:21.832Z,45.80
2019-02-14T21:02:50.380Z,49.33
2019-02-14T21:05:19.072Z,46.87
2019-02-14T21:07:47.703Z,43.07
2019-02-14T21:10:16.274Z,44.80
2019-02-14T21:12:44.789Z,43.17
2019-02-14T21:15:13.426Z,44.10
2019-02-14T21:17:42.059Z,41.80
2019-02-14T21:20:12.547Z,44.27
2019-02-14T21:22:41.095Z,47.07
2019-02-14T21:25:09.999Z,46.90
2019-02-14T21:27:38.562Z,40.70
2019-02-14T21:30:14.668Z,38.67
2019-02-14T21:32:43.319Z,34.37
2019-02-14T21:35:11.877Z,36.57
2019-02-14T21:37:40.361Z,31.40
2019-02-14T21:40:14.216Z,29.30
2019-02-14T21:42:42.840Z,30.90
2019-02-14T21:45:13.291Z,31.77
2019-02-14T21:47:41.994Z,29.03
2019-02-14T21:50:14.974Z,32.93
2019-02-14T21:52:43.713Z,30.07
2019-02-14T21:55:13.417Z,32.30
2019-02-14T21:57:42.037Z,26.07
2019-02-14T22:00:19.551Z,28.57
2019-02-14T22:02:48.856Z,32.20
2019-02-14T22:05:24.015Z,29.93
2019-02-14T22:07:48.100Z,29.20
2019-02-14T22:10:16.644Z,27.63
2019-02-14T22:12:45.210Z,30.43
2019-02-14T22:15:20.040Z,34.90
2019-02-14T22:17:48.674Z,31.27
2019-02-14T22:20:17.285Z,34.73
2019-02-14T22:22:45.948Z,40.53
2019-02-14T22:25:14.582Z,40.40
2019-02-14T22:27:43.211Z,44.73
2019-02-14T22:30:18.718Z,50.07
2019-02-14T22:32:47.354Z,47.70
2019-02-14T22:35:15.977Z,49.63
2019-02-14T22:37:44.652Z,42.10
2019-02-14T22:40:14.874Z,43.70
2019-02-14T22:42:47.553Z,36.80
2019-02-14T22:45:15.427Z,33.63
2019-02-14T22:47:45.263Z,45.20
2019-02-14T22:50:14.189Z,30.03
2019-02-14T22:52:50.883Z,29.73
2019-02-14T22:55:19.520Z,33.07
2019-02-14T22:57:48.392Z,37.00
2019-02-14T23:00:24.520Z,33.17
2019-02-14T23:02:53.229Z,30.20
2019-02-14T23:05:21.865Z,31.63
2019-02-14T23:07:50.507Z,30.27
2019-02-14T23:10:19.049Z,33.70
2019-02-14T23:12:55.481Z,29.17
2019-02-14T23:15:18.380Z,30.60
2019-02-14T23:17:47.053Z,30.87
2019-02-14T23:20:15.608Z,31.03
2019-02-14T23:22:44.206Z,30.83
2019-02-14T23:25:14.501Z,29.13
2019-02-14T23:27:42.988Z,36.33
2019-02-14T23:30:14.103Z,31.90
2019-02-14T23:32:42.784Z,37.20
2019-02-14T23:35:11.362Z,36.33
2019-02-14T23:37:40.012Z,38.00
2019-02-14T23:40:08.973Z,39.37
2019-02-14T23:42:37.614Z,32.47
2019-02-14T23:45:08.950Z,34.63
2019-02-14T23:47:37.472Z,37.60
2019-02-14T23:50:08.236Z,29.77
2019-02-14T23:52:36.860Z,35.10
2019-02-14T23:55:07.221Z,33.33
2019-02-14T23:57:35.786Z,36.03
